createdAt,value
2017-07-05T00:00:54.198Z,1005.06
2017-07-05T00:03:18.404Z,1005.07
2017-07-05T00:05:42.680Z,1005.09
2017-07-05T00:08:06.878Z,1005.11
2017-07-05T00:10:31.087Z,1005.06
2017-07-05T00:12:55.311Z,1005.03
2017-07-05T00:15:19.512Z,1005.07
2017-07-05T00:17:43.738Z,1005
2017-07-05T00:21:43.787Z,1004.98
2017-07-05T00:24:08.067Z,1004.99
2017-07-05T00:26:32.267Z,1004.99
2017-07-05T00:28:56.425Z,1004.96
2017-07-05T00:31:20.670Z,1004.92
2017-07-05T00:33:44.952Z,1004.94
2017-07-05T00:36:09.154Z,1004.95
2017-07-05T00:40:09.151Z,1004.95
2017-07-05T00:42:33.388Z,1004.9
2017-07-05T00:44:57.998Z,1004.92
2017-07-05T00:47:22.237Z,1004.88
2017-07-05T00:49:46.332Z,1004.88
2017-07-05T00:52:10.547Z,1004.9
2017-07-05T00:54:34.745Z,1004.91
2017-07-05T00:56:58.929Z,1004.89
2017-07-05T00:59:14.666Z,1004.8
2017-07-05T01:01:38.837Z,1004.9
2017-07-05T01:04:03.004Z,1004.91
2017-07-05T01:06:27.150Z,1004.95
2017-07-05T01:08:28.595Z,1004.92
2017-07-05T01:10:52.794Z,1004.95
2017-07-05T01:13:16.950Z,1004.95
2017-07-05T01:15:32.642Z,1004.91
2017-07-05T01:17:56.818Z,1004.98
2017-07-05T01:20:20.989Z,1004.94
2017-07-05T01:22:36.674Z,1004.95
2017-07-05T01:25:00.842Z,1004.92
2017-07-05T01:27:25.026Z,1004.92
2017-07-05T01:29:49.182Z,1004.92
2017-07-05T01:31:59.122Z,1004.93
2017-07-05T01:34:23.312Z,1004.91
2017-07-05T01:36:39.083Z,1004.88
2017-07-05T01:38:54.798Z,1004.86
2017-07-05T01:41:18.901Z,1004.84
2017-07-05T01:43:34.601Z,1004.84
2017-07-05T01:45:58.716Z,1004.8
2017-07-05T01:49:58.649Z,1004.76
2017-07-05T01:52:22.850Z,1004.77
2017-07-05T01:54:47.034Z,1004.71
2017-07-05T01:57:11.379Z,1004.73
2017-07-05T01:59:35.567Z,1004.7
2017-07-05T02:01:59.714Z,1004.7
2017-07-05T02:04:23.888Z,1004.68
2017-07-05T02:06:48.190Z,1004.65
2017-07-05T02:09:12.327Z,1004.64
2017-07-05T02:11:36.463Z,1004.62
2017-07-05T02:13:52.141Z,1004.63
2017-07-05T02:16:16.259Z,1004.58
2017-07-05T02:18:40.365Z,1004.54
2017-07-05T02:20:56.004Z,1004.56
2017-07-05T02:23:20.094Z,1004.58
2017-07-05T02:25:44.223Z,1004.56
2017-07-05T02:28:08.335Z,1004.62
2017-07-05T02:30:32.440Z,1004.59
2017-07-05T02:32:56.612Z,1004.6
2017-07-05T02:35:20.717Z,1004.6
2017-07-05T02:37:44.832Z,1004.63
2017-07-05T02:40:09.069Z,1004.61
2017-07-05T02:42:33.165Z,1004.54
2017-07-05T02:44:57.310Z,1004.57
2017-07-05T02:47:21.395Z,1004.56
2017-07-05T02:49:22.816Z,1004.59
2017-07-05T02:51:46.956Z,1004.57
2017-07-05T02:54:11.069Z,1004.54
2017-07-05T02:56:35.182Z,1004.55
2017-07-05T02:58:59.287Z,1004.55
2017-07-05T03:01:23.383Z,1004.53
2017-07-05T03:03:47.444Z,1004.51
2017-07-05T03:06:11.546Z,1004.52
2017-07-05T03:08:35.568Z,1004.52
2017-07-05T03:10:59.641Z,1004.54
2017-07-05T03:13:23.712Z,1004.57
2017-07-05T03:15:33.601Z,1004.52
2017-07-05T03:17:57.701Z,1004.52
2017-07-05T03:20:07.606Z,1004.54
2017-07-05T03:22:17.539Z,1004.54
2017-07-05T03:24:19.394Z,1004.53
2017-07-05T03:26:43.528Z,1004.54
2017-07-05T03:29:07.642Z,1004.58
2017-07-05T03:31:23.291Z,1004.61
2017-07-05T03:33:47.403Z,1004.58
2017-07-05T03:36:11.514Z,1004.55
2017-07-05T03:38:35.585Z,1004.56
2017-07-05T03:40:59.648Z,1004.59
2017-07-05T03:43:23.690Z,1004.62
2017-07-05T03:45:47.774Z,1004.6
2017-07-05T03:48:11.840Z,1004.63
2017-07-05T03:50:35.842Z,1004.59
2017-07-05T03:52:59.965Z,1004.56
2017-07-05T03:55:24.085Z,1004.56
2017-07-05T03:57:48.114Z,1004.53
2017-07-05T03:59:57.994Z,1004.55
2017-07-05T04:02:22.077Z,1004.58
2017-07-05T04:04:46.212Z,1004.59
2017-07-05T04:07:10.270Z,1004.6
2017-07-05T04:09:34.343Z,1004.62
2017-07-05T04:11:58.466Z,1004.67
2017-07-05T04:14:22.570Z,1004.71
2017-07-05T04:16:46.727Z,1004.71
2017-07-05T04:19:10.816Z,1004.71
2017-07-05T04:21:34.980Z,1004.66
2017-07-05T04:23:59.102Z,1004.7
2017-07-05T04:26:23.230Z,1004.73
2017-07-05T04:28:47.388Z,1004.79
2017-07-05T04:31:11.603Z,1004.86
2017-07-05T04:33:35.938Z,1004.9
2017-07-05T04:36:00.409Z,1004.97
2017-07-05T04:38:25.047Z,1004.94
2017-07-05T04:40:49.798Z,1004.99
2017-07-05T04:43:14.664Z,1005.05
2017-07-05T04:45:39.721Z,1005.03
2017-07-05T04:48:04.863Z,1005.09
2017-07-05T04:50:30.232Z,1005.12
2017-07-05T04:52:55.629Z,1005.07
2017-07-05T04:55:21.178Z,1005.12
2017-07-05T04:57:46.945Z,1005.16
2017-07-05T05:00:04.216Z,1005.2
2017-07-05T05:02:30.112Z,1005.26
2017-07-05T05:04:47.522Z,1005.23
2017-07-05T05:06:58.432Z,1005.24
2017-07-05T05:09:24.642Z,1005.26
2017-07-05T05:11:51.775Z,1005.24
2017-07-05T05:14:18.083Z,1005.27
2017-07-05T05:16:28.637Z,1005.29
2017-07-05T05:18:31.091Z,1005.3
2017-07-05T05:20:42.288Z,1005.3
2017-07-05T05:22:54.454Z,1005.28
2017-07-05T05:25:21.058Z,1005.32
2017-07-05T05:27:47.862Z,1005.29
2017-07-05T05:30:14.557Z,1005.31
2017-07-05T05:32:41.352Z,1005.27
2017-07-05T05:35:08.129Z,1005.29
2017-07-05T05:37:34.964Z,1005.3
2017-07-05T05:40:01.925Z,1005.29
2017-07-05T05:42:28.909Z,1005.24
2017-07-05T05:44:55.914Z,1005.22
2017-07-05T05:47:23.102Z,1005.23
2017-07-05T05:49:50.176Z,1005.22
2017-07-05T05:52:17.368Z,1005.24
2017-07-05T05:54:44.608Z,1005.28
2017-07-05T05:57:11.805Z,1005.28
2017-07-05T05:59:39.260Z,1005.31
2017-07-05T06:02:07.607Z,1005.35
2017-07-05T06:04:35.088Z,1005.38
2017-07-05T06:07:02.416Z,1005.4
2017-07-05T06:09:29.964Z,1005.42
2017-07-05T06:11:57.661Z,1005.43
2017-07-05T06:14:25.049Z,1005.5
2017-07-05T06:16:52.569Z,1005.51
2017-07-05T06:19:20.269Z,1005.54
2017-07-05T06:21:47.783Z,1005.6
2017-07-05T06:24:15.459Z,1005.6
2017-07-05T06:26:43.136Z,1005.61
2017-07-05T06:29:10.850Z,1005.61
2017-07-05T06:31:38.664Z,1005.64
2017-07-05T06:34:06.480Z,1005.68
2017-07-05T06:36:34.310Z,1005.7
2017-07-05T06:39:02.225Z,1005.67
2017-07-05T06:41:30.186Z,1005.67
2017-07-05T06:43:58.195Z,1005.66
2017-07-05T06:46:26.311Z,1005.65
2017-07-05T06:48:54.451Z,1005.63
2017-07-05T06:51:22.445Z,1005.63
2017-07-05T06:55:35.449Z,1005.64
2017-07-05T06:58:03.149Z,1005.64
2017-07-05T07:00:21.928Z,1005.55
2017-07-05T07:02:49.400Z,1005.55
2017-07-05T07:05:16.583Z,1005.49
2017-07-05T07:07:43.602Z,1005.52
2017-07-05T07:10:10.492Z,1005.51
2017-07-05T07:12:38.193Z,1005.48
2017-07-05T07:15:04.977Z,1005.48
2017-07-05T07:17:23.099Z,1005.52
2017-07-05T07:19:49.703Z,1005.57
2017-07-05T07:22:16.266Z,1005.51
2017-07-05T07:24:42.770Z,1005.49
2017-07-05T07:27:09.169Z,1005.5
2017-07-05T07:29:35.593Z,1005.49
2017-07-05T07:32:02.009Z,1005.54
2017-07-05T07:34:28.380Z,1005.54
2017-07-05T07:36:54.750Z,1005.56
2017-07-05T07:39:21.111Z,1005.59
2017-07-05T07:41:47.483Z,1005.56
2017-07-05T07:44:13.985Z,1005.56
2017-07-05T07:46:40.379Z,1005.53
2017-07-05T07:48:51.529Z,1005.48
2017-07-05T07:51:17.996Z,1005.48
2017-07-05T07:53:11.480Z,1005.43
2017-07-05T07:55:22.154Z,1005.47
2017-07-05T07:57:48.650Z,1005.42
2017-07-05T08:00:15.114Z,1005.48
2017-07-05T08:02:41.577Z,1005.53
2017-07-05T08:05:08.000Z,1005.53
2017-07-05T08:07:34.429Z,1005.56
2017-07-05T08:10:00.908Z,1005.57
2017-07-05T08:11:45.719Z,1005.59
2017-07-05T08:14:12.186Z,1005.63
2017-07-05T08:16:38.584Z,1005.62
2017-07-05T08:19:04.940Z,1005.64
2017-07-05T08:21:31.404Z,1005.63
2017-07-05T08:23:33.610Z,1005.62
2017-07-05T08:26:00.654Z,1005.7
2017-07-05T08:28:09.927Z,1005.67
2017-07-05T08:30:36.355Z,1005.64
2017-07-05T08:33:02.851Z,1005.66
2017-07-05T08:35:29.360Z,1005.65
2017-07-05T08:37:55.867Z,1005.59
2017-07-05T08:40:22.409Z,1005.58
2017-07-05T08:42:48.944Z,1005.59
2017-07-05T08:45:16.385Z,1005.57
2017-07-05T08:47:34.696Z,1005.55
2017-07-05T08:50:01.238Z,1005.57
2017-07-05T08:52:19.173Z,1005.57
2017-07-05T08:54:45.720Z,1005.57
2017-07-05T08:57:12.272Z,1005.58
2017-07-05T08:59:38.806Z,1005.52
2017-07-05T09:01:56.710Z,1005.51
2017-07-05T09:04:23.196Z,1005.55
2017-07-05T09:06:49.646Z,1005.51
2017-07-05T09:09:16.110Z,1005.48
2017-07-05T09:11:42.539Z,1005.47
2017-07-05T09:13:44.654Z,1005.51
2017-07-05T09:16:02.566Z,1005.47
2017-07-05T09:18:20.480Z,1005.42
2017-07-05T09:20:46.906Z,1005.4
2017-07-05T09:23:13.347Z,1005.39
2017-07-05T09:25:39.820Z,1005.45
2017-07-05T09:28:06.322Z,1005.41
2017-07-05T09:30:24.218Z,1005.42
2017-07-05T09:32:50.694Z,1005.42
2017-07-05T09:35:08.571Z,1005.42
2017-07-05T09:37:26.451Z,1005.35
2017-07-05T09:39:52.889Z,1005.36
2017-07-05T09:42:19.289Z,1005.36
2017-07-05T09:44:21.744Z,1005.37
2017-07-05T09:46:32.347Z,1005.34
2017-07-05T09:48:58.700Z,1005.32
2017-07-05T09:51:25.010Z,1005.34
2017-07-05T09:53:51.306Z,1005.3
2017-07-05T09:56:17.577Z,1005.28
2017-07-05T09:58:43.779Z,1005.31
2017-07-05T10:01:10.010Z,1005.28
2017-07-05T10:03:36.227Z,1005.31
2017-07-05T10:06:02.397Z,1005.27
2017-07-05T10:08:28.562Z,1005.23
2017-07-05T10:10:54.771Z,1005.27
2017-07-05T10:13:20.892Z,1005.25
2017-07-05T10:15:46.941Z,1005.23
2017-07-05T10:17:40.759Z,1005.11
2017-07-05T10:20:06.806Z,1005.17
2017-07-05T10:22:32.801Z,1005.12
2017-07-05T10:24:50.158Z,1005.06
2017-07-05T10:27:16.041Z,1005.07
2017-07-05T10:29:41.865Z,1005.01
2017-07-05T10:32:07.678Z,1005
2017-07-05T10:34:33.507Z,1004.94
2017-07-05T10:36:59.289Z,1004.98
2017-07-05T10:39:25.078Z,1005.03
2017-07-05T10:41:50.830Z,1005.02
2017-07-05T10:44:08.033Z,1005
2017-07-05T10:46:33.757Z,1004.99
2017-07-05T10:48:59.443Z,1004.92
2017-07-05T10:51:16.575Z,1004.93
2017-07-05T10:53:42.276Z,1004.83
2017-07-05T10:55:44.721Z,1004.77
2017-07-05T10:58:10.414Z,1004.81
2017-07-05T11:00:36.045Z,1004.79
2017-07-05T11:02:53.169Z,1004.79
2017-07-05T11:05:18.777Z,1004.79
2017-07-05T11:07:44.362Z,1004.77
2017-07-05T11:10:09.934Z,1004.78
2017-07-05T11:12:35.551Z,1004.78
2017-07-05T11:15:01.053Z,1004.72
2017-07-05T11:17:26.594Z,1004.7
2017-07-05T11:19:52.112Z,1004.64
2017-07-05T11:22:09.052Z,1004.61
2017-07-05T11:24:25.996Z,1004.55
2017-07-05T11:26:51.465Z,1004.54
2017-07-05T11:29:16.895Z,1004.42
2017-07-05T11:31:33.781Z,1004.42
2017-07-05T11:33:59.137Z,1004.4
2017-07-05T11:36:24.579Z,1004.41
2017-07-05T11:38:49.962Z,1004.36
2017-07-05T11:41:15.385Z,1004.34
2017-07-05T11:43:40.762Z,1004.43
2017-07-05T11:46:06.140Z,1004.43
2017-07-05T11:48:31.509Z,1004.38
2017-07-05T11:50:56.858Z,1004.35
2017-07-05T11:53:13.684Z,1004.32
2017-07-05T11:55:30.545Z,1004.35
2017-07-05T11:57:55.979Z,1004.34
2017-07-05T12:00:21.300Z,1004.35
2017-07-05T12:02:46.659Z,1004.29
2017-07-05T12:05:12.057Z,1004.2
2017-07-05T12:07:37.455Z,1004.31
2017-07-05T12:10:02.866Z,1004.22
2017-07-05T12:12:28.264Z,1004.26
2017-07-05T12:14:53.669Z,1004.22
2017-07-05T12:17:19.080Z,1004.19
2017-07-05T12:19:44.492Z,1004.17
2017-07-05T12:22:01.726Z,1004.18
2017-07-05T12:24:27.130Z,1004.11
2017-07-05T12:26:52.601Z,1004.17
2017-07-05T12:29:17.997Z,1004.11
2017-07-05T12:31:43.613Z,1004.06
2017-07-05T12:34:09.073Z,1004
2017-07-05T12:36:34.522Z,1003.97
2017-07-05T12:39:00.243Z,1004.02
2017-07-05T12:41:10.878Z,1003.92
2017-07-05T12:43:36.338Z,1003.95
2017-07-05T12:47:38.245Z,1003.94
2017-07-05T12:50:03.740Z,1003.91
2017-07-05T12:52:20.722Z,1003.94
2017-07-05T12:54:46.043Z,1003.88
2017-07-05T12:57:02.931Z,1003.89
2017-07-05T12:59:28.319Z,1004
2017-07-05T13:01:53.632Z,1003.95
2017-07-05T13:04:19.113Z,1003.94
2017-07-05T13:06:44.542Z,1003.93
2017-07-05T13:09:09.870Z,1003.95
2017-07-05T13:11:12.131Z,1003.9
2017-07-05T13:13:37.505Z,1003.89
2017-07-05T13:16:02.830Z,1003.84
2017-07-05T13:18:28.230Z,1003.83
2017-07-05T13:20:53.571Z,1003.74
2017-07-05T13:23:10.376Z,1003.7
2017-07-05T13:25:36.054Z,1003.79
2017-07-05T13:28:01.475Z,1003.74
2017-07-05T13:30:26.821Z,1003.8
2017-07-05T13:32:54.815Z,1003.76
2017-07-05T13:35:20.194Z,1003.77
2017-07-05T13:37:22.693Z,1003.77
2017-07-05T13:39:48.048Z,1003.73
2017-07-05T13:42:13.410Z,1003.67
2017-07-05T13:44:38.760Z,1003.63
2017-07-05T13:47:04.077Z,1003.69
2017-07-05T13:49:29.516Z,1003.64
2017-07-05T13:51:54.900Z,1003.66
2017-07-05T13:54:20.216Z,1003.69
2017-07-05T13:56:45.542Z,1003.59
2017-07-05T13:59:10.958Z,1003.64
2017-07-05T14:01:36.305Z,1003.66
2017-07-05T14:04:01.615Z,1003.68
2017-07-05T14:06:27.214Z,1003.7
2017-07-05T14:08:52.537Z,1003.65
2017-07-05T14:11:17.909Z,1003.64
2017-07-05T14:13:43.280Z,1003.64
2017-07-05T14:16:08.659Z,1003.57
2017-07-05T14:18:34.084Z,1003.54
2017-07-05T14:20:59.466Z,1003.54
2017-07-05T14:23:24.912Z,1003.51
2017-07-05T14:25:50.342Z,1003.48
2017-07-05T14:28:15.711Z,1003.51
2017-07-05T14:30:41.331Z,1003.5
2017-07-05T14:33:06.668Z,1003.49
2017-07-05T14:35:32.183Z,1003.51
2017-07-05T14:37:57.571Z,1003.47
2017-07-05T14:40:22.990Z,1003.48
2017-07-05T14:42:39.847Z,1003.45
2017-07-05T14:45:05.315Z,1003.42
2017-07-05T14:47:30.670Z,1003.44
2017-07-05T14:49:56.092Z,1003.38
2017-07-05T14:52:21.485Z,1003.32
2017-07-05T14:54:46.837Z,1003.31
2017-07-05T14:57:12.265Z,1003.28
2017-07-05T15:01:05.346Z,1003.29
2017-07-05T15:03:30.762Z,1003.25
2017-07-05T15:05:56.077Z,1003.31
2017-07-05T15:08:21.435Z,1003.32
2017-07-05T15:10:38.286Z,1003.26
2017-07-05T15:13:03.516Z,1003.31
2017-07-05T15:15:28.916Z,1003.32
2017-07-05T15:17:55.034Z,1003.34
2017-07-05T15:20:20.169Z,1003.3
2017-07-05T15:22:45.572Z,1003.26
2017-07-05T15:25:10.866Z,1003.22
2017-07-05T15:27:36.213Z,1003.24
2017-07-05T15:30:01.552Z,1003.24
2017-07-05T15:32:26.843Z,1003.25
2017-07-05T15:34:52.234Z,1003.21
2017-07-05T15:37:17.545Z,1003.23
2017-07-05T15:39:42.955Z,1003.15
2017-07-05T15:42:08.336Z,1003.14
2017-07-05T15:44:33.724Z,1003.06
2017-07-05T15:46:59.003Z,1003.11
2017-07-05T15:49:24.328Z,1003.11
2017-07-05T15:51:41.125Z,1003.15
2017-07-05T15:54:06.478Z,1003.13
2017-07-05T15:56:31.727Z,1003.13
2017-07-05T15:58:57.044Z,1003.15
2017-07-05T16:01:22.359Z,1003.09
2017-07-05T16:03:47.642Z,1003.12
2017-07-05T16:06:12.952Z,1003.08
2017-07-05T16:08:23.253Z,1003.02
2017-07-05T16:10:40.079Z,1002.96
2017-07-05T16:13:05.325Z,1003.01
2017-07-05T16:15:30.577Z,1003.04
2017-07-05T16:17:55.838Z,1003.01
2017-07-05T16:20:12.567Z,1002.99
2017-07-05T16:22:37.815Z,1003.01
2017-07-05T16:25:03.059Z,1002.99
2017-07-05T16:27:28.292Z,1003.02
2017-07-05T16:29:53.488Z,1003.02
2017-07-05T16:32:18.712Z,1003.01
2017-07-05T16:34:20.900Z,1002.94
2017-07-05T16:36:46.195Z,1002.98
2017-07-05T16:40:47.795Z,1002.98
2017-07-05T16:43:13.045Z,1002.94
2017-07-05T16:45:38.232Z,1002.95
2017-07-05T16:48:03.460Z,1002.93
2017-07-05T16:50:28.611Z,1002.91
2017-07-05T16:52:53.799Z,1002.96
2017-07-05T16:55:19.014Z,1002.95
2017-07-05T16:57:44.379Z,1002.95
2017-07-05T16:59:55.137Z,1002.99
2017-07-05T17:02:20.358Z,1003
2017-07-05T17:04:45.478Z,1002.99
2017-07-05T17:07:02.129Z,1002.95
2017-07-05T17:09:27.304Z,1002.97
2017-07-05T17:11:52.450Z,1002.94
2017-07-05T17:14:09.103Z,1002.96
2017-07-05T17:16:34.261Z,1002.92
2017-07-05T17:18:59.393Z,1002.91
2017-07-05T17:21:16.063Z,1002.92
2017-07-05T17:23:41.235Z,1002.92
2017-07-05T17:26:06.418Z,1002.92
2017-07-05T17:28:31.611Z,1002.93
2017-07-05T17:30:56.716Z,1002.92
2017-07-05T17:33:22.065Z,1002.96
2017-07-05T17:35:47.231Z,1002.98
2017-07-05T17:38:12.374Z,1002.98
2017-07-05T17:40:14.585Z,1002.98
2017-07-05T17:42:16.235Z,1003.02
2017-07-05T17:44:41.425Z,1002.97
2017-07-05T17:46:43.585Z,1003.03
2017-07-05T17:49:08.722Z,1003.02
2017-07-05T17:51:33.877Z,1003
2017-07-05T17:53:58.970Z,1002.99
2017-07-05T17:56:15.585Z,1002.98
2017-07-05T17:58:40.631Z,1002.97
2017-07-05T18:01:05.667Z,1002.96
2017-07-05T18:03:30.706Z,1002.97
2017-07-05T18:05:55.790Z,1002.94
2017-07-05T18:08:20.892Z,1002.95
2017-07-05T18:10:45.977Z,1003
2017-07-05T18:13:11.011Z,1002.97
2017-07-05T18:15:13.153Z,1002.95
2017-07-05T18:17:38.251Z,1002.96
2017-07-05T18:19:54.752Z,1002.91
2017-07-05T18:22:11.330Z,1002.95
2017-07-05T18:24:36.385Z,1002.92
2017-07-05T18:26:44.417Z,1002.95
2017-07-05T18:29:09.453Z,1002.97
2017-07-05T18:31:25.982Z,1003.03
2017-07-05T18:33:51.017Z,1003.03
2017-07-05T18:36:16.006Z,1003.03
2017-07-05T18:38:41.099Z,1003.05
2017-07-05T18:41:06.489Z,1003.04
2017-07-05T18:43:31.605Z,1003.07
2017-07-05T18:45:56.572Z,1003.07
2017-07-05T18:48:21.600Z,1003.08
2017-07-05T18:50:46.598Z,1003.1
2017-07-05T18:53:11.632Z,1003.1
2017-07-05T18:55:19.627Z,1003.12
2017-07-05T18:57:44.676Z,1003.09
2017-07-05T19:00:09.999Z,1003.11
2017-07-05T19:02:26.552Z,1003.11
2017-07-05T19:04:28.212Z,1003.16
2017-07-05T19:06:53.231Z,1003.14
2017-07-05T19:09:18.194Z,1003.15
2017-07-05T19:11:43.124Z,1003.19
2017-07-05T19:14:08.123Z,1003.19
2017-07-05T19:16:24.582Z,1003.2
2017-07-05T19:18:49.581Z,1003.21
2017-07-05T19:21:14.604Z,1003.24
2017-07-05T19:23:31.054Z,1003.23
2017-07-05T19:25:56.004Z,1003.24
2017-07-05T19:28:21.034Z,1003.27
2017-07-05T19:30:45.962Z,1003.28
2017-07-05T19:33:10.895Z,1003.26
2017-07-05T19:35:35.870Z,1003.32
2017-07-05T19:37:52.327Z,1003.36
2017-07-05T19:40:17.254Z,1003.41
2017-07-05T19:42:42.193Z,1003.36
2017-07-05T19:44:58.832Z,1003.38
2017-07-05T19:47:00.768Z,1003.39
2017-07-05T19:49:25.694Z,1003.41
2017-07-05T19:51:50.606Z,1003.43
2017-07-05T19:54:01.347Z,1003.45
2017-07-05T19:56:27.069Z,1003.49
2017-07-05T19:58:52.014Z,1003.49
2017-07-05T20:01:08.421Z,1003.55
2017-07-05T20:03:33.259Z,1003.58
2017-07-05T20:05:58.110Z,1003.62
2017-07-05T20:08:23.032Z,1003.64
2017-07-05T20:10:47.868Z,1003.63
2017-07-05T20:13:12.695Z,1003.65
2017-07-05T20:15:37.527Z,1003.64
2017-07-05T20:18:02.332Z,1003.66
2017-07-05T20:20:27.178Z,1003.69
2017-07-05T20:22:52.029Z,1003.76
2017-07-05T20:25:17.128Z,1003.74
2017-07-05T20:27:42.112Z,1003.79
2017-07-05T20:30:06.827Z,1003.8
2017-07-05T20:32:31.554Z,1003.78
2017-07-05T20:34:56.282Z,1003.79
2017-07-05T20:37:21.092Z,1003.84
2017-07-05T20:39:45.772Z,1003.8
2017-07-05T20:42:10.482Z,1003.82
2017-07-05T20:44:35.284Z,1003.83
2017-07-05T20:47:00.083Z,1003.84
2017-07-05T20:49:24.810Z,1003.9
2017-07-05T20:51:41.131Z,1003.64
2017-07-05T20:54:06.029Z,1003.88
2017-07-05T20:56:30.783Z,1003.9
2017-07-05T20:58:55.427Z,1003.9
2017-07-05T21:00:56.975Z,1003.88
2017-07-05T21:03:21.696Z,1003.87
2017-07-05T21:05:37.932Z,1003.88
2017-07-05T21:08:02.605Z,1003.86
2017-07-05T21:10:04.274Z,1003.84
2017-07-05T21:12:29.670Z,1003.87
2017-07-05T21:14:54.367Z,1003.9
2017-07-05T21:17:19.001Z,1003.91
2017-07-05T21:19:29.117Z,1003.93
2017-07-05T21:21:39.203Z,1003.92
2017-07-05T21:24:03.901Z,1003.94
2017-07-05T21:26:28.522Z,1003.94
2017-07-05T21:28:53.155Z,1003.92
2017-07-05T21:31:17.776Z,1003.93
2017-07-05T21:33:27.884Z,1003.95
2017-07-05T21:35:52.512Z,1003.96
2017-07-05T21:38:17.149Z,1003.99
2017-07-05T21:40:41.813Z,1004.02
2017-07-05T21:43:06.466Z,1003.97
2017-07-05T21:45:31.097Z,1003.99
2017-07-05T21:47:55.722Z,1004.02
2017-07-05T21:50:20.327Z,1004.02
2017-07-05T21:52:44.953Z,1004.01
2017-07-05T21:55:09.623Z,1004
2017-07-05T21:57:34.239Z,1004.01
2017-07-05T21:59:58.864Z,1004.02
2017-07-05T22:02:23.486Z,1004.02
2017-07-05T22:04:48.071Z,1004.03
2017-07-05T22:08:48.571Z,1004.05
2017-07-05T22:11:13.216Z,1004.04
2017-07-05T22:13:37.855Z,1004.01
2017-07-05T22:16:02.470Z,1004.02
2017-07-05T22:18:18.629Z,1003.96
2017-07-05T22:20:26.249Z,1003.99
2017-07-05T22:22:50.815Z,1003.99
2017-07-05T22:25:15.410Z,1003.93
2017-07-05T22:27:40.013Z,1003.94
2017-07-05T22:30:04.637Z,1003.89
2017-07-05T22:32:06.655Z,1003.92
2017-07-05T22:34:31.286Z,1003.96
2017-07-05T22:36:55.885Z,1003.95
2017-07-05T22:39:20.399Z,1003.93
2017-07-05T22:41:44.969Z,1003.91
2017-07-05T22:44:01.061Z,1003.93
2017-07-05T22:46:25.607Z,1003.92
2017-07-05T22:48:50.145Z,1003.92
2017-07-05T22:51:00.215Z,1003.92
2017-07-05T22:52:59.373Z,1003.9
2017-07-05T22:55:15.407Z,1003.86
2017-07-05T22:57:39.930Z,1003.93
2017-07-05T23:00:04.457Z,1003.9
2017-07-05T23:02:28.970Z,1003.9
2017-07-05T23:04:53.492Z,1003.92
2017-07-05T23:07:17.998Z,1003.95
2017-07-05T23:09:25.582Z,1003.93
2017-07-05T23:11:50.050Z,1003.97
2017-07-05T23:14:14.497Z,1003.93
2017-07-05T23:16:38.978Z,1003.88
2017-07-05T23:19:03.429Z,1003.9
2017-07-05T23:21:27.911Z,1003.92
2017-07-05T23:23:52.392Z,1003.91
2017-07-05T23:26:16.815Z,1003.87
2017-07-05T23:28:41.291Z,1003.92
2017-07-05T23:30:57.308Z,1003.89
2017-07-05T23:33:21.774Z,1003.92
2017-07-05T23:35:46.243Z,1003.93
2017-07-05T23:38:10.677Z,1003.95
2017-07-05T23:40:35.149Z,1003.91
2017-07-05T23:42:59.622Z,1003.92
2017-07-05T23:45:01.202Z,1003.94
2017-07-05T23:47:02.664Z,1003.95
2017-07-05T23:49:27.171Z,1003.96
2017-07-05T23:51:34.723Z,1003.94
2017-07-05T23:53:59.185Z,1004
2017-07-05T23:56:23.625Z,1004.02
2017-07-05T23:58:48.081Z,1004.02
